sensor_id;sensor_type;location;lat;lon;timestamp;temperature;humidity
4739;DHT22;2383;48.632;10.156;2022-10-22T00:03:55;19.70;99.90
4739;DHT22;2383;48.632;10.156;2022-10-22T00:07:57;19.10;99.90
4739;DHT22;2383;48.632;10.156;2022-10-22T00:11:59;17.90;99.90
4739;DHT22;2383;48.632;10.156;2022-10-22T00:16:01;18.10;99.90
4739;DHT22;2383;48.632;10.156;2022-10-22T00:20:04;18.40;99.90
4739;DHT22;2383;48.632;10.156;2022-10-22T00:24:06;17.30;99.90
4739;DHT22;2383;48.632;10.156;2022-10-22T00:28:08;17.60;99.90
4739;DHT22;2383;48.632;10.156;2022-10-22T00:32:09;17.50;99.90
4739;DHT22;2383;48.632;10.156;2022-10-22T00:36:11;17.70;99.90
4739;DHT22;2383;48.632;10.156;2022-10-22T00:40:13;17.90;99.90
4739;DHT22;2383;48.632;10.156;2022-10-22T00:48:57;17.20;99.90
4739;DHT22;2383;48.632;10.156;2022-10-22T00:53:00;17.00;99.90
4739;DHT22;2383;48.632;10.156;2022-10-22T00:57:03;16.60;99.90
4739;DHT22;2383;48.632;10.156;2022-10-22T01:01:05;16.30;99.90
4739;DHT22;2383;48.632;10.156;2022-10-22T01:05:09;16.80;99.90
4739;DHT22;2383;48.632;10.156;2022-10-22T01:18:00;17.50;99.90
4739;DHT22;2383;48.632;10.156;2022-10-22T01:22:16;17.70;99.90
4739;DHT22;2383;48.632;10.156;2022-10-22T01:30:39;18.10;99.90
4739;DHT22;2383;48.632;10.156;2022-10-22T01:34:43;18.60;99.90
4739;DHT22;2383;48.632;10.156;2022-10-22T01:38:48;18.70;99.90
4739;DHT22;2383;48.632;10.156;2022-10-22T01:43:00;18.60;99.90
4739;DHT22;2383;48.632;10.156;2022-10-22T02:00:05;18.70;99.90
4739;DHT22;2383;48.632;10.156;2022-10-22T02:08:54;18.70;99.90
4739;DHT22;2383;48.632;10.156;2022-10-22T02:12:58;18.60;99.90
4739;DHT22;2383;48.632;10.156;2022-10-22T02:17:01;18.80;99.90
4739;DHT22;2383;48.632;10.156;2022-10-22T02:21:05;18.80;99.90
4739;DHT22;2383;48.632;10.156;2022-10-22T02:25:11;18.20;99.90
4739;DHT22;2383;48.632;10.156;2022-10-22T02:29:19;18.40;99.90
4739;DHT22;2383;48.632;10.156;2022-10-22T02:33:32;18.80;99.90
4739;DHT22;2383;48.632;10.156;2022-10-22T02:37:35;18.90;99.90
4739;DHT22;2383;48.632;10.156;2022-10-22T02:41:38;18.20;99.90
4739;DHT22;2383;48.632;10.156;2022-10-22T02:45:40;18.40;99.90
4739;DHT22;2383;48.632;10.156;2022-10-22T02:49:41;18.40;99.90
4739;DHT22;2383;48.632;10.156;2022-10-22T02:53:43;18.50;99.90
4739;DHT22;2383;48.632;10.156;2022-10-22T02:57:46;18.40;99.90
4739;DHT22;2383;48.632;10.156;2022-10-22T03:01:47;18.20;99.90
4739;DHT22;2383;48.632;10.156;2022-10-22T03:05:50;18.90;99.90
4739;DHT22;2383;48.632;10.156;2022-10-22T03:09:55;18.60;99.90
4739;DHT22;2383;48.632;10.156;2022-10-22T03:13:56;18.30;99.90
4739;DHT22;2383;48.632;10.156;2022-10-22T03:17:58;18.10;99.90
4739;DHT22;2383;48.632;10.156;2022-10-22T03:22:03;18.20;99.90
4739;DHT22;2383;48.632;10.156;2022-10-22T03:26:06;17.50;99.90
4739;DHT22;2383;48.632;10.156;2022-10-22T03:30:09;17.60;99.90
4739;DHT22;2383;48.632;10.156;2022-10-22T03:34:12;17.60;99.90
4739;DHT22;2383;48.632;10.156;2022-10-22T03:38:14;17.90;99.90
4739;DHT22;2383;48.632;10.156;2022-10-22T03:42:16;17.90;99.90
4739;DHT22;2383;48.632;10.156;2022-10-22T03:46:19;17.80;99.90
4739;DHT22;2383;48.632;10.156;2022-10-22T03:50:21;17.90;99.90
4739;DHT22;2383;48.632;10.156;2022-10-22T03:54:22;18.20;99.90
4739;DHT22;2383;48.632;10.156;2022-10-22T03:58:24;18.20;99.90
4739;DHT22;2383;48.632;10.156;2022-10-22T04:02:26;18.40;99.90
4739;DHT22;2383;48.632;10.156;2022-10-22T04:06:28;18.00;99.90
4739;DHT22;2383;48.632;10.156;2022-10-22T04:10:33;17.80;99.90
4739;DHT22;2383;48.632;10.156;2022-10-22T04:14:35;17.80;99.90
4739;DHT22;2383;48.632;10.156;2022-10-22T04:18:37;17.90;99.90
4739;DHT22;2383;48.632;10.156;2022-10-22T04:22:39;18.20;99.90
4739;DHT22;2383;48.632;10.156;2022-10-22T04:26:41;18.40;99.90
4739;DHT22;2383;48.632;10.156;2022-10-22T04:30:43;18.80;99.90
4739;DHT22;2383;48.632;10.156;2022-10-22T04:34:45;18.50;99.90
4739;DHT22;2383;48.632;10.156;2022-10-22T04:38:51;18.30;99.90
4739;DHT22;2383;48.632;10.156;2022-10-22T04:42:54;18.50;99.90
4739;DHT22;2383;48.632;10.156;2022-10-22T04:46:55;18.50;99.90
4739;DHT22;2383;48.632;10.156;2022-10-22T04:50:58;18.60;99.90
4739;DHT22;2383;48.632;10.156;2022-10-22T04:55:00;18.40;99.90
4739;DHT22;2383;48.632;10.156;2022-10-22T04:59:04;18.20;99.90
4739;DHT22;2383;48.632;10.156;2022-10-22T05:03:06;18.30;99.90
4739;DHT22;2383;48.632;10.156;2022-10-22T05:07:07;18.50;99.90
4739;DHT22;2383;48.632;10.156;2022-10-22T05:11:21;18.40;99.90
4739;DHT22;2383;48.632;10.156;2022-10-22T05:15:23;18.50;99.90
4739;DHT22;2383;48.632;10.156;2022-10-22T05:19:27;18.10;99.90
4739;DHT22;2383;48.632;10.156;2022-10-22T05:23:30;18.20;99.90
4739;DHT22;2383;48.632;10.156;2022-10-22T05:27:32;18.30;99.90
4739;DHT22;2383;48.632;10.156;2022-10-22T05:31:34;18.40;99.90
4739;DHT22;2383;48.632;10.156;2022-10-22T05:35:36;18.20;99.90
4739;DHT22;2383;48.632;10.156;2022-10-22T05:39:37;18.50;99.90
4739;DHT22;2383;48.632;10.156;2022-10-22T05:43:41;18.30;99.90
4739;DHT22;2383;48.632;10.156;2022-10-22T05:47:43;18.30;99.90
4739;DHT22;2383;48.632;10.156;2022-10-22T05:51:45;18.50;99.90
4739;DHT22;2383;48.632;10.156;2022-10-22T05:55:47;18.20;99.90
4739;DHT22;2383;48.632;10.156;2022-10-22T05:59:56;18.10;99.90
4739;DHT22;2383;48.632;10.156;2022-10-22T06:04:00;17.80;99.90
4739;DHT22;2383;48.632;10.156;2022-10-22T06:08:02;17.70;99.90
4739;DHT22;2383;48.632;10.156;2022-10-22T06:12:20;17.60;99.90
4739;DHT22;2383;48.632;10.156;2022-10-22T06:16:22;17.70;99.90
4739;DHT22;2383;48.632;10.156;2022-10-22T06:20:23;17.60;99.90
4739;DHT22;2383;48.632;10.156;2022-10-22T06:24:25;17.60;99.90
4739;DHT22;2383;48.632;10.156;2022-10-22T06:28:30;18.20;99.90
4739;DHT22;2383;48.632;10.156;2022-10-22T06:32:32;17.90;99.90
4739;DHT22;2383;48.632;10.156;2022-10-22T06:36:33;18.10;99.90
4739;DHT22;2383;48.632;10.156;2022-10-22T06:40:35;18.50;99.90
4739;DHT22;2383;48.632;10.156;2022-10-22T06:44:37;18.00;99.90
4739;DHT22;2383;48.632;10.156;2022-10-22T06:48:40;18.40;99.90
4739;DHT22;2383;48.632;10.156;2022-10-22T06:52:41;18.40;99.90
4739;DHT22;2383;48.632;10.156;2022-10-22T06:56:43;18.40;99.90
4739;DHT22;2383;48.632;10.156;2022-10-22T07:00:46;18.40;99.90
4739;DHT22;2383;48.632;10.156;2022-10-22T07:04:48;18.50;99.90
4739;DHT22;2383;48.632;10.156;2022-10-22T07:08:50;18.50;99.90
4739;DHT22;2383;48.632;10.156;2022-10-22T07:12:52;18.40;99.90
4739;DHT22;2383;48.632;10.156;2022-10-22T07:16:54;18.50;99.90
4739;DHT22;2383;48.632;10.156;2022-10-22T07:20:56;18.70;99.90
4739;DHT22;2383;48.632;10.156;2022-10-22T07:24:58;18.90;99.90
4739;DHT22;2383;48.632;10.156;2022-10-22T07:29:04;18.90;99.90
4739;DHT22;2383;48.632;10.156;2022-10-22T07:33:06;19.10;99.90
4739;DHT22;2383;48.632;10.156;2022-10-22T07:37:12;19.10;99.90
4739;DHT22;2383;48.632;10.156;2022-10-22T07:41:15;19.00;99.90
4739;DHT22;2383;48.632;10.156;2022-10-22T07:45:17;18.80;99.90
4739;DHT22;2383;48.632;10.156;2022-10-22T07:49:18;18.50;99.90
4739;DHT22;2383;48.632;10.156;2022-10-22T07:53:20;19.00;99.90
4739;DHT22;2383;48.632;10.156;2022-10-22T07:57:25;19.40;99.90
4739;DHT22;2383;48.632;10.156;2022-10-22T08:01:27;19.50;99.90
4739;DHT22;2383;48.632;10.156;2022-10-22T08:05:29;19.50;99.90
4739;DHT22;2383;48.632;10.156;2022-10-22T08:09:31;19.70;99.90
4739;DHT22;2383;48.632;10.156;2022-10-22T08:13:33;19.60;99.90
4739;DHT22;2383;48.632;10.156;2022-10-22T08:17:35;19.70;99.90
4739;DHT22;2383;48.632;10.156;2022-10-22T08:21:36;19.50;99.90
4739;DHT22;2383;48.632;10.156;2022-10-22T08:25:38;19.50;99.90
4739;DHT22;2383;48.632;10.156;2022-10-22T08:29:40;19.30;99.90
4739;DHT22;2383;48.632;10.156;2022-10-22T08:33:42;19.20;99.90
4739;DHT22;2383;48.632;10.156;2022-10-22T08:37:44;19.40;99.90
4739;DHT22;2383;48.632;10.156;2022-10-22T08:50:45;19.10;99.90
4739;DHT22;2383;48.632;10.156;2022-10-22T08:54:53;19.00;99.90
4739;DHT22;2383;48.632;10.156;2022-10-22T08:59:05;19.20;99.90
4739;DHT22;2383;48.632;10.156;2022-10-22T09:07:23;19.60;99.90
4739;DHT22;2383;48.632;10.156;2022-10-22T09:11:34;19.10;99.90
4739;DHT22;2383;48.632;10.156;2022-10-22T09:15:37;19.40;99.90
4739;DHT22;2383;48.632;10.156;2022-10-22T09:28:19;19.90;99.90
4739;DHT22;2383;48.632;10.156;2022-10-22T09:32:21;19.70;99.90
4739;DHT22;2383;48.632;10.156;2022-10-22T09:36:27;19.50;99.90
4739;DHT22;2383;48.632;10.156;2022-10-22T09:40:47;19.60;99.90
4739;DHT22;2383;48.632;10.156;2022-10-22T09:44:55;19.50;99.90
4739;DHT22;2383;48.632;10.156;2022-10-22T09:49:10;19.70;99.90
4739;DHT22;2383;48.632;10.156;2022-10-22T09:53:16;19.80;99.90
4739;DHT22;2383;48.632;10.156;2022-10-22T09:57:23;19.60;99.90
4739;DHT22;2383;48.632;10.156;2022-10-22T10:01:35;19.80;99.90
4739;DHT22;2383;48.632;10.156;2022-10-22T10:05:39;19.70;99.90
4739;DHT22;2383;48.632;10.156;2022-10-22T10:09:41;19.60;99.90
4739;DHT22;2383;48.632;10.156;2022-10-22T10:13:53;19.90;99.90
4739;DHT22;2383;48.632;10.156;2022-10-22T10:22:33;20.40;99.90
4739;DHT22;2383;48.632;10.156;2022-10-22T10:26:48;20.50;99.90
4739;DHT22;2383;48.632;10.156;2022-10-22T10:35:30;20.40;99.90
4739;DHT22;2383;48.632;10.156;2022-10-22T10:40:01;20.30;99.90
4739;DHT22;2383;48.632;10.156;2022-10-22T10:44:35;20.30;99.90
4739;DHT22;2383;48.632;10.156;2022-10-22T11:01:30;20.70;99.90
4739;DHT22;2383;48.632;10.156;2022-10-22T11:05:59;20.50;99.90
4739;DHT22;2383;48.632;10.156;2022-10-22T11:10:13;21.00;99.90
4739;DHT22;2383;48.632;10.156;2022-10-22T11:14:27;21.00;99.90
4739;DHT22;2383;48.632;10.156;2022-10-22T11:23:16;21.20;99.90
4739;DHT22;2383;48.632;10.156;2022-10-22T11:27:39;21.20;99.90
4739;DHT22;2383;48.632;10.156;2022-10-22T11:31:43;21.00;99.90
4739;DHT22;2383;48.632;10.156;2022-10-22T11:35:48;21.20;99.90
4739;DHT22;2383;48.632;10.156;2022-10-22T11:39:53;21.10;99.90
4739;DHT22;2383;48.632;10.156;2022-10-22T11:48:18;21.20;99.90
4739;DHT22;2383;48.632;10.156;2022-10-22T11:56:37;21.30;99.90
4739;DHT22;2383;48.632;10.156;2022-10-22T12:00:45;21.50;99.90
4739;DHT22;2383;48.632;10.156;2022-10-22T12:04:48;21.30;99.90
4739;DHT22;2383;48.632;10.156;2022-10-22T12:12:57;21.50;99.90
4739;DHT22;2383;48.632;10.156;2022-10-22T12:21:13;21.90;99.90
4739;DHT22;2383;48.632;10.156;2022-10-22T12:25:29;21.60;99.90
4739;DHT22;2383;48.632;10.156;2022-10-22T12:29:36;21.20;99.90
4739;DHT22;2383;48.632;10.156;2022-10-22T12:33:38;21.30;99.90
4739;DHT22;2383;48.632;10.156;2022-10-22T12:37:40;21.40;99.90
4739;DHT22;2383;48.632;10.156;2022-10-22T12:41:42;21.30;99.90
4739;DHT22;2383;48.632;10.156;2022-10-22T12:45:46;21.30;99.90
4739;DHT22;2383;48.632;10.156;2022-10-22T12:49:49;21.40;99.90
4739;DHT22;2383;48.632;10.156;2022-10-22T12:53:53;21.90;99.90
4739;DHT22;2383;48.632;10.156;2022-10-22T12:57:56;21.70;99.90
4739;DHT22;2383;48.632;10.156;2022-10-22T13:01:59;21.50;98.50
4739;DHT22;2383;48.632;10.156;2022-10-22T13:06:32;20.70;98.00
4739;DHT22;2383;48.632;10.156;2022-10-22T13:10:47;20.90;98.10
4739;DHT22;2383;48.632;10.156;2022-10-22T13:15:18;21.40;98.70
4739;DHT22;2383;48.632;10.156;2022-10-22T13:23:54;20.70;98.40
4739;DHT22;2383;48.632;10.156;2022-10-22T13:28:00;20.60;98.50
4739;DHT22;2383;48.632;10.156;2022-10-22T13:32:02;21.10;98.30
4739;DHT22;2383;48.632;10.156;2022-10-22T13:36:04;21.10;99.20
4739;DHT22;2383;48.632;10.156;2022-10-22T13:40:13;21.00;99.60
4739;DHT22;2383;48.632;10.156;2022-10-22T13:44:15;21.00;99.50
4739;DHT22;2383;48.632;10.156;2022-10-22T13:48:19;20.60;99.50
4739;DHT22;2383;48.632;10.156;2022-10-22T13:52:35;21.30;98.60
4739;DHT22;2383;48.632;10.156;2022-10-22T13:56:38;20.90;99.10
4739;DHT22;2383;48.632;10.156;2022-10-22T14:00:43;20.90;98.60
4739;DHT22;2383;48.632;10.156;2022-10-22T14:04:45;21.00;99.40
4739;DHT22;2383;48.632;10.156;2022-10-22T14:08:52;21.30;98.80
4739;DHT22;2383;48.632;10.156;2022-10-22T14:12:55;21.20;99.70
4739;DHT22;2383;48.632;10.156;2022-10-22T14:17:00;21.60;99.80
4739;DHT22;2383;48.632;10.156;2022-10-22T14:21:03;21.70;99.00
4739;DHT22;2383;48.632;10.156;2022-10-22T14:25:12;21.80;98.70
4739;DHT22;2383;48.632;10.156;2022-10-22T14:29:14;21.60;99.20
4739;DHT22;2383;48.632;10.156;2022-10-22T14:33:30;21.80;98.80
4739;DHT22;2383;48.632;10.156;2022-10-22T14:37:33;21.90;98.60
4739;DHT22;2383;48.632;10.156;2022-10-22T14:41:35;21.90;98.50
4739;DHT22;2383;48.632;10.156;2022-10-22T14:45:38;21.90;98.30
4739;DHT22;2383;48.632;10.156;2022-10-22T14:49:40;21.80;97.80
4739;DHT22;2383;48.632;10.156;2022-10-22T14:53:42;21.70;98.50
4739;DHT22;2383;48.632;10.156;2022-10-22T14:57:44;21.20;98.80
4739;DHT22;2383;48.632;10.156;2022-10-22T15:01:47;21.20;98.30
4739;DHT22;2383;48.632;10.156;2022-10-22T15:05:51;21.60;97.80
4739;DHT22;2383;48.632;10.156;2022-10-22T15:09:54;21.60;98.10
4739;DHT22;2383;48.632;10.156;2022-10-22T15:13:55;21.80;97.50
4739;DHT22;2383;48.632;10.156;2022-10-22T15:17:57;22.10;97.50
4739;DHT22;2383;48.632;10.156;2022-10-22T15:21:59;22.10;97.20
4739;DHT22;2383;48.632;10.156;2022-10-22T15:26:01;22.20;97.80
4739;DHT22;2383;48.632;10.156;2022-10-22T15:30:04;22.20;98.40
4739;DHT22;2383;48.632;10.156;2022-10-22T15:34:06;22.20;99.00
4739;DHT22;2383;48.632;10.156;2022-10-22T15:38:07;22.10;99.00
4739;DHT22;2383;48.632;10.156;2022-10-22T15:42:12;22.00;99.20
4739;DHT22;2383;48.632;10.156;2022-10-22T15:46:17;22.00;99.40
4739;DHT22;2383;48.632;10.156;2022-10-22T15:50:19;21.90;99.90
4739;DHT22;2383;48.632;10.156;2022-10-22T15:54:24;21.90;99.90
4739;DHT22;2383;48.632;10.156;2022-10-22T15:58:26;21.80;99.90
4739;DHT22;2383;48.632;10.156;2022-10-22T16:02:27;21.70;99.90
4739;DHT22;2383;48.632;10.156;2022-10-22T16:10:32;21.40;99.90
4739;DHT22;2383;48.632;10.156;2022-10-22T16:14:34;21.30;99.90
4739;DHT22;2383;48.632;10.156;2022-10-22T16:18:39;21.20;99.90
4739;DHT22;2383;48.632;10.156;2022-10-22T16:22:41;21.10;99.90
4739;DHT22;2383;48.632;10.156;2022-10-22T16:26:44;20.80;99.90
4739;DHT22;2383;48.632;10.156;2022-10-22T16:30:46;20.70;99.90
4739;DHT22;2383;48.632;10.156;2022-10-22T16:34:47;20.60;99.90
4739;DHT22;2383;48.632;10.156;2022-10-22T16:38:51;20.50;99.90
4739;DHT22;2383;48.632;10.156;2022-10-22T16:42:55;20.40;99.90
4739;DHT22;2383;48.632;10.156;2022-10-22T16:46:57;20.20;99.90
4739;DHT22;2383;48.632;10.156;2022-10-22T16:51:04;20.40;99.90
4739;DHT22;2383;48.632;10.156;2022-10-22T16:55:09;20.10;99.90
4739;DHT22;2383;48.632;10.156;2022-10-22T16:59:11;20.00;99.90
4739;DHT22;2383;48.632;10.156;2022-10-22T17:03:13;19.90;99.90
4739;DHT22;2383;48.632;10.156;2022-10-22T17:07:15;19.60;99.90
4739;DHT22;2383;48.632;10.156;2022-10-22T17:11:20;19.40;99.90
4739;DHT22;2383;48.632;10.156;2022-10-22T17:15:22;19.30;99.90
4739;DHT22;2383;48.632;10.156;2022-10-22T17:19:23;19.30;99.90
4739;DHT22;2383;48.632;10.156;2022-10-22T17:23:26;19.30;99.90
4739;DHT22;2383;48.632;10.156;2022-10-22T17:27:30;19.20;99.90
4739;DHT22;2383;48.632;10.156;2022-10-22T17:31:37;19.30;99.90
4739;DHT22;2383;48.632;10.156;2022-10-22T17:35:39;19.50;99.90
4739;DHT22;2383;48.632;10.156;2022-10-22T17:39:41;18.90;99.90
4739;DHT22;2383;48.632;10.156;2022-10-22T17:43:43;18.40;99.90
4739;DHT22;2383;48.632;10.156;2022-10-22T17:47:46;18.30;99.90
4739;DHT22;2383;48.632;10.156;2022-10-22T17:51:48;18.90;99.90
4739;DHT22;2383;48.632;10.156;2022-10-22T17:56:01;18.50;99.90
4739;DHT22;2383;48.632;10.156;2022-10-22T18:00:06;18.50;99.90
4739;DHT22;2383;48.632;10.156;2022-10-22T18:04:10;18.50;99.90
4739;DHT22;2383;48.632;10.156;2022-10-22T18:08:13;18.40;99.90
4739;DHT22;2383;48.632;10.156;2022-10-22T18:12:15;18.30;99.90
4739;DHT22;2383;48.632;10.156;2022-10-22T18:16:18;18.30;99.90
4739;DHT22;2383;48.632;10.156;2022-10-22T18:20:20;18.20;99.90
4739;DHT22;2383;48.632;10.156;2022-10-22T18:24:22;18.30;99.90
4739;DHT22;2383;48.632;10.156;2022-10-22T18:28:24;18.40;99.90
4739;DHT22;2383;48.632;10.156;2022-10-22T18:32:26;18.30;99.90
4739;DHT22;2383;48.632;10.156;2022-10-22T18:36:29;18.40;99.90
4739;DHT22;2383;48.632;10.156;2022-10-22T18:40:31;17.60;99.90
4739;DHT22;2383;48.632;10.156;2022-10-22T18:44:33;17.50;99.90
4739;DHT22;2383;48.632;10.156;2022-10-22T18:48:35;17.60;99.90
4739;DHT22;2383;48.632;10.156;2022-10-22T18:52:37;17.60;99.90
4739;DHT22;2383;48.632;10.156;2022-10-22T18:56:39;17.60;99.90
4739;DHT22;2383;48.632;10.156;2022-10-22T19:00:41;17.70;99.90
4739;DHT22;2383;48.632;10.156;2022-10-22T19:04:43;17.70;99.90
4739;DHT22;2383;48.632;10.156;2022-10-22T19:08:46;16.90;99.90
4739;DHT22;2383;48.632;10.156;2022-10-22T19:12:52;17.20;99.90
4739;DHT22;2383;48.632;10.156;2022-10-22T19:16:53;17.30;99.90
4739;DHT22;2383;48.632;10.156;2022-10-22T19:21:00;17.60;99.90
4739;DHT22;2383;48.632;10.156;2022-10-22T19:25:02;17.60;99.90
4739;DHT22;2383;48.632;10.156;2022-10-22T19:29:09;17.40;99.90
4739;DHT22;2383;48.632;10.156;2022-10-22T19:33:13;17.60;99.90
4739;DHT22;2383;48.632;10.156;2022-10-22T19:37:15;17.20;99.90
4739;DHT22;2383;48.632;10.156;2022-10-22T19:41:19;17.40;99.90
4739;DHT22;2383;48.632;10.156;2022-10-22T19:45:21;17.40;99.90
4739;DHT22;2383;48.632;10.156;2022-10-22T19:49:23;17.50;99.90
4739;DHT22;2383;48.632;10.156;2022-10-22T19:53:25;17.50;99.90
4739;DHT22;2383;48.632;10.156;2022-10-22T19:57:27;17.30;99.90
4739;DHT22;2383;48.632;10.156;2022-10-22T20:01:30;17.50;99.90
4739;DHT22;2383;48.632;10.156;2022-10-22T20:05:33;17.30;99.90
4739;DHT22;2383;48.632;10.156;2022-10-22T20:09:34;17.70;99.90
4739;DHT22;2383;48.632;10.156;2022-10-22T20:13:37;17.30;99.90
4739;DHT22;2383;48.632;10.156;2022-10-22T20:17:38;17.20;99.90
4739;DHT22;2383;48.632;10.156;2022-10-22T20:21:41;16.90;99.90
4739;DHT22;2383;48.632;10.156;2022-10-22T20:25:45;17.00;99.90
4739;DHT22;2383;48.632;10.156;2022-10-22T20:29:47;16.80;99.90
4739;DHT22;2383;48.632;10.156;2022-10-22T20:33:49;16.70;99.90
4739;DHT22;2383;48.632;10.156;2022-10-22T20:37:51;16.80;99.90
4739;DHT22;2383;48.632;10.156;2022-10-22T20:41:53;17.30;99.90
4739;DHT22;2383;48.632;10.156;2022-10-22T20:45:54;17.10;99.90
4739;DHT22;2383;48.632;10.156;2022-10-22T20:49:56;17.20;99.90
4739;DHT22;2383;48.632;10.156;2022-10-22T20:53:58;17.50;99.90
4739;DHT22;2383;48.632;10.156;2022-10-22T20:58:00;17.10;99.90
4739;DHT22;2383;48.632;10.156;2022-10-22T21:02:02;17.10;99.90
4739;DHT22;2383;48.632;10.156;2022-10-22T21:06:08;16.60;99.90
4739;DHT22;2383;48.632;10.156;2022-10-22T21:10:10;16.70;99.90
4739;DHT22;2383;48.632;10.156;2022-10-22T21:14:14;16.60;99.90
4739;DHT22;2383;48.632;10.156;2022-10-22T21:18:16;17.00;99.90
4739;DHT22;2383;48.632;10.156;2022-10-22T21:22:18;16.80;99.90
4739;DHT22;2383;48.632;10.156;2022-10-22T21:26:20;17.20;99.90
4739;DHT22;2383;48.632;10.156;2022-10-22T21:30:22;17.40;99.90
4739;DHT22;2383;48.632;10.156;2022-10-22T21:34:24;16.90;99.90
4739;DHT22;2383;48.632;10.156;2022-10-22T21:38:25;17.10;99.90
4739;DHT22;2383;48.632;10.156;2022-10-22T21:42:27;17.20;99.90
4739;DHT22;2383;48.632;10.156;2022-10-22T21:46:29;16.70;99.90
4739;DHT22;2383;48.632;10.156;2022-10-22T21:50:31;16.90;99.90
4739;DHT22;2383;48.632;10.156;2022-10-22T21:54:33;16.40;99.90
4739;DHT22;2383;48.632;10.156;2022-10-22T21:58:37;16.30;99.90
4739;DHT22;2383;48.632;10.156;2022-10-22T22:02:39;16.80;99.90
4739;DHT22;2383;48.632;10.156;2022-10-22T22:06:41;16.40;99.90
4739;DHT22;2383;48.632;10.156;2022-10-22T22:10:43;16.80;99.90
4739;DHT22;2383;48.632;10.156;2022-10-22T22:14:45;16.70;99.90
4739;DHT22;2383;48.632;10.156;2022-10-22T22:18:47;16.80;99.90
4739;DHT22;2383;48.632;10.156;2022-10-22T22:22:48;16.70;99.90
4739;DHT22;2383;48.632;10.156;2022-10-22T22:26:50;16.80;99.90
4739;DHT22;2383;48.632;10.156;2022-10-22T22:30:52;16.50;99.90
4739;DHT22;2383;48.632;10.156;2022-10-22T22:34:53;16.70;99.90
4739;DHT22;2383;48.632;10.156;2022-10-22T22:38:55;16.50;99.90
4739;DHT22;2383;48.632;10.156;2022-10-22T22:42:58;16.40;99.90
4739;DHT22;2383;48.632;10.156;2022-10-22T22:47:00;16.50;99.90
4739;DHT22;2383;48.632;10.156;2022-10-22T22:51:16;16.30;99.90
4739;DHT22;2383;48.632;10.156;2022-10-22T22:55:18;16.20;99.90
4739;DHT22;2383;48.632;10.156;2022-10-22T22:59:21;16.20;99.90
4739;DHT22;2383;48.632;10.156;2022-10-22T23:03:22;16.20;99.90
4739;DHT22;2383;48.632;10.156;2022-10-22T23:07:24;16.40;99.90
4739;DHT22;2383;48.632;10.156;2022-10-22T23:11:27;16.20;99.90
4739;DHT22;2383;48.632;10.156;2022-10-22T23:15:28;16.30;99.90
4739;DHT22;2383;48.632;10.156;2022-10-22T23:19:30;16.20;99.90
4739;DHT22;2383;48.632;10.156;2022-10-22T23:23:33;15.80;99.90
4739;DHT22;2383;48.632;10.156;2022-10-22T23:27:35;15.30;99.90
4739;DHT22;2383;48.632;10.156;2022-10-22T23:31:37;15.60;99.90
4739;DHT22;2383;48.632;10.156;2022-10-22T23:35:39;16.20;99.90
4739;DHT22;2383;48.632;10.156;2022-10-22T23:39:42;16.00;99.90
4739;DHT22;2383;48.632;10.156;2022-10-22T23:43:43;16.20;99.90
4739;DHT22;2383;48.632;10.156;2022-10-22T23:47:45;16.60;99.90
4739;DHT22;2383;48.632;10.156;2022-10-22T23:51:47;16.30;99.90
4739;DHT22;2383;48.632;10.156;2022-10-22T23:55:49;16.60;99.90
4739;DHT22;2383;48.632;10.156;2022-10-22T23:59:51;16.00;99.90
